createdAt,value
2022-12-24T00:02:05.257Z,7.70
2022-12-24T00:04:32.056Z,7.90
2022-12-24T00:06:58.773Z,8.20
2022-12-24T00:09:25.612Z,8.40
2022-12-24T00:11:52.267Z,8.50
2022-12-24T00:14:18.994Z,8.70
2022-12-24T00:16:45.727Z,9.00
2022-12-24T00:19:14.558Z,9.20
2022-12-24T00:21:41.208Z,9.50
2022-12-24T00:24:07.899Z,9.70
2022-12-24T00:26:34.618Z,9.80
2022-12-24T00:29:01.408Z,9.90
2022-12-24T00:31:28.270Z,10.00
2022-12-24T00:33:55.212Z,10.00
2022-12-24T00:36:21.849Z,10.00
2022-12-24T00:38:48.503Z,10.10
2022-12-24T00:41:24.917Z,10.00
2022-12-24T00:43:52.615Z,10.20
2022-12-24T00:46:20.027Z,10.10
2022-12-24T00:48:46.973Z,10.10
2022-12-24T00:51:13.746Z,10.20
2022-12-24T00:53:40.591Z,10.20
2022-12-24T00:56:07.550Z,10.30
2022-12-24T00:58:34.165Z,10.30
2022-12-24T01:01:00.847Z,10.40
2022-12-24T01:03:36.626Z,10.40
2022-12-24T01:06:03.966Z,10.50
2022-12-24T01:08:30.707Z,10.50
2022-12-24T01:10:57.429Z,10.60
2022-12-24T01:13:24.168Z,10.70
2022-12-24T01:15:50.908Z,10.70
2022-12-24T01:18:17.639Z,10.80
2022-12-24T01:20:44.324Z,10.80
2022-12-24T01:23:10.963Z,10.80
2022-12-24T01:25:38.518Z,10.80
2022-12-24T01:28:05.336Z,10.80
2022-12-24T01:30:32.749Z,10.70
2022-12-24T01:32:59.379Z,10.70
2022-12-24T01:35:25.973Z,10.70
2022-12-24T01:37:52.872Z,10.70
2022-12-24T01:40:38.243Z,10.70
2022-12-24T01:43:23.616Z,10.70
2022-12-24T01:45:54.379Z,10.70
2022-12-24T01:48:30.345Z,10.80
2022-12-24T01:51:05.581Z,10.80
2022-12-24T01:53:33.283Z,10.90
2022-12-24T01:56:00.039Z,11.00
2022-12-24T01:58:26.826Z,11.00
2022-12-24T02:00:53.609Z,11.10
2022-12-24T02:03:20.485Z,11.00
2022-12-24T02:05:53.615Z,11.10
2022-12-24T02:08:20.433Z,11.00
2022-12-24T02:10:47.118Z,10.90
2022-12-24T02:13:14.389Z,10.90
2022-12-24T02:15:50.136Z,10.90
2022-12-24T02:18:16.797Z,10.90
2022-12-24T02:20:52.692Z,10.90
2022-12-24T02:23:38.212Z,10.90
2022-12-24T02:26:17.008Z,10.90
2022-12-24T02:29:02.479Z,10.90
2022-12-24T02:31:35.134Z,10.90
2022-12-24T02:34:06.601Z,10.90
2022-12-24T02:36:35.353Z,10.90
2022-12-24T02:39:05.837Z,10.90
2022-12-24T02:41:54.833Z,10.90
2022-12-24T02:44:22.719Z,10.90
2022-12-24T02:46:49.415Z,10.90
2022-12-24T02:49:16.207Z,10.90
2022-12-24T02:51:42.913Z,10.90
2022-12-24T02:54:09.563Z,10.90
2022-12-24T02:56:39.229Z,10.90
2022-12-24T02:59:12.555Z,10.90
2022-12-24T03:01:48.504Z,10.90
2022-12-24T03:04:16.525Z,10.90
2022-12-24T03:06:44.853Z,10.80
2022-12-24T03:09:14.799Z,10.80
2022-12-24T03:11:43.727Z,10.80
2022-12-24T03:14:10.351Z,10.80
2022-12-24T03:16:37.053Z,10.90
2022-12-24T03:19:03.726Z,10.90
2022-12-24T03:21:34.877Z,10.90
2022-12-24T03:24:01.516Z,10.90
2022-12-24T03:26:28.813Z,11.00
2022-12-24T03:28:55.719Z,11.00
2022-12-24T03:31:22.458Z,11.10
2022-12-24T03:33:49.151Z,11.10
2022-12-24T03:36:16.015Z,11.10
2022-12-24T03:38:42.714Z,11.10
2022-12-24T03:41:09.332Z,11.10
2022-12-24T03:43:35.976Z,11.10
2022-12-24T03:46:06.578Z,11.10
2022-12-24T03:48:33.957Z,11.10
2022-12-24T03:51:00.795Z,11.00
2022-12-24T03:53:27.586Z,11.10
2022-12-24T03:55:54.319Z,11.00
2022-12-24T03:58:21.013Z,10.90
2022-12-24T04:00:47.730Z,10.90
2022-12-24T04:03:14.628Z,10.90
2022-12-24T04:05:41.353Z,10.90
2022-12-24T04:08:08.187Z,10.90
2022-12-24T04:10:34.826Z,10.90
2022-12-24T04:13:01.471Z,10.90
2022-12-24T04:15:28.100Z,10.90
2022-12-24T04:17:54.760Z,10.90
2022-12-24T04:20:21.396Z,10.90
2022-12-24T04:22:48.027Z,10.90
2022-12-24T04:25:14.733Z,11.00
2022-12-24T04:27:41.380Z,11.00
2022-12-24T04:30:08.379Z,11.10
2022-12-24T04:32:35.059Z,11.10
2022-12-24T04:35:01.700Z,11.10
2022-12-24T04:37:28.456Z,11.20
2022-12-24T04:39:55.098Z,11.20
2022-12-24T04:42:21.735Z,11.20
2022-12-24T04:44:48.385Z,11.20
2022-12-24T04:47:15.036Z,11.20
2022-12-24T04:49:41.700Z,11.20
2022-12-24T04:52:08.388Z,11.20
2022-12-24T04:54:35.099Z,11.20
2022-12-24T04:57:01.775Z,11.20
2022-12-24T04:59:28.597Z,11.10
2022-12-24T05:01:55.474Z,11.10
2022-12-24T05:04:22.217Z,11.10
2022-12-24T05:06:48.888Z,11.00
2022-12-24T05:09:15.530Z,11.10
2022-12-24T05:11:42.158Z,11.00
2022-12-24T05:14:08.864Z,11.00
2022-12-24T05:16:35.609Z,11.00
2022-12-24T05:19:02.303Z,11.00
2022-12-24T05:21:28.951Z,10.90
2022-12-24T05:24:14.034Z,10.90
2022-12-24T05:26:43.544Z,10.90
2022-12-24T05:29:12.139Z,10.90
2022-12-24T05:31:40.265Z,10.80
2022-12-24T05:34:07.732Z,10.90
2022-12-24T05:36:34.382Z,10.80
2022-12-24T05:39:01.091Z,10.80
2022-12-24T05:41:27.764Z,10.80
2022-12-24T05:43:54.452Z,10.90
2022-12-24T05:46:21.819Z,10.80
2022-12-24T05:48:48.890Z,10.80
2022-12-24T05:51:18.708Z,10.80
2022-12-24T05:53:45.675Z,10.80
2022-12-24T05:56:13.363Z,10.90
2022-12-24T05:58:40.156Z,10.90
2022-12-24T06:01:06.982Z,11.00
2022-12-24T06:03:33.718Z,10.90
2022-12-24T06:06:01.173Z,10.90
2022-12-24T06:08:28.448Z,10.90
2022-12-24T06:10:58.331Z,10.90
2022-12-24T06:13:25.181Z,10.90
2022-12-24T06:15:54.443Z,10.90
2022-12-24T06:18:21.145Z,11.00
2022-12-24T06:20:50.501Z,10.90
2022-12-24T06:23:17.104Z,10.90
2022-12-24T06:25:43.764Z,10.90
2022-12-24T06:28:10.437Z,10.90
2022-12-24T06:30:37.053Z,10.90
2022-12-24T06:33:03.921Z,10.80
2022-12-24T06:35:33.797Z,10.70
2022-12-24T06:38:00.490Z,10.70
2022-12-24T06:40:27.112Z,10.60
2022-12-24T06:42:53.754Z,10.50
2022-12-24T06:45:20.485Z,10.50
2022-12-24T06:47:50.862Z,10.40
2022-12-24T06:50:17.529Z,10.40
2022-12-24T06:52:44.178Z,10.40
2022-12-24T06:55:10.856Z,10.40
2022-12-24T06:57:37.516Z,10.40
2022-12-24T07:00:04.529Z,10.40
2022-12-24T07:02:31.256Z,10.40
2022-12-24T07:04:57.927Z,10.40
2022-12-24T07:07:24.613Z,10.40
2022-12-24T07:09:51.270Z,10.40
2022-12-24T07:12:17.922Z,10.40
2022-12-24T07:14:44.875Z,10.40
2022-12-24T07:17:11.636Z,10.40
2022-12-24T07:19:38.447Z,10.30
2022-12-24T07:22:10.244Z,10.30
2022-12-24T07:24:40.196Z,10.30
2022-12-24T07:27:07.170Z,10.40
2022-12-24T07:29:36.909Z,10.40
2022-12-24T07:32:03.659Z,10.40
2022-12-24T07:34:30.321Z,10.30
2022-12-24T07:37:00.264Z,10.30
2022-12-24T07:39:27.228Z,10.20
2022-12-24T07:41:53.915Z,10.20
2022-12-24T07:44:20.593Z,10.20
2022-12-24T07:46:47.288Z,10.10
2022-12-24T07:49:13.952Z,10.10
2022-12-24T07:51:40.575Z,10.10
2022-12-24T07:54:07.331Z,10.10
2022-12-24T07:56:34.163Z,10.20
2022-12-24T07:59:00.918Z,10.20
2022-12-24T08:01:27.682Z,10.30
2022-12-24T08:03:55.105Z,10.40
2022-12-24T08:06:23.602Z,10.60
2022-12-24T08:08:50.349Z,10.70
2022-12-24T08:11:16.984Z,10.70
2022-12-24T08:13:43.588Z,10.70
2022-12-24T08:16:10.357Z,10.70
2022-12-24T08:18:37.169Z,10.60
2022-12-24T08:21:03.931Z,10.60
2022-12-24T08:23:30.560Z,10.60
2022-12-24T08:25:57.206Z,10.50
2022-12-24T08:28:23.856Z,10.40
2022-12-24T08:30:50.665Z,10.40
2022-12-24T08:33:17.717Z,10.40
2022-12-24T08:35:50.610Z,10.50
2022-12-24T08:38:17.282Z,10.50
2022-12-24T08:40:44.152Z,10.70
2022-12-24T08:43:10.832Z,10.80
2022-12-24T08:45:40.848Z,11.00
2022-12-24T08:48:08.441Z,11.10
2022-12-24T08:50:35.099Z,11.20
2022-12-24T08:53:01.795Z,11.30
2022-12-24T08:55:28.490Z,11.60
2022-12-24T08:57:55.160Z,11.80
2022-12-24T09:00:21.964Z,12.10
2022-12-24T09:02:48.768Z,12.40
2022-12-24T09:05:15.572Z,12.60
2022-12-24T09:07:42.244Z,12.70
2022-12-24T09:10:09.314Z,12.80
2022-12-24T09:12:36.017Z,12.80
2022-12-24T09:15:04.114Z,12.80
2022-12-24T09:17:32.388Z,12.80
2022-12-24T09:20:03.387Z,12.80
2022-12-24T09:22:30.051Z,12.70
2022-12-24T09:24:56.812Z,12.80
2022-12-24T09:27:23.483Z,12.80
2022-12-24T09:29:50.180Z,12.80
2022-12-24T09:32:16.863Z,12.90
2022-12-24T09:34:43.576Z,12.90
2022-12-24T09:37:10.184Z,13.00
2022-12-24T09:39:36.858Z,13.00
2022-12-24T09:42:07.895Z,13.20
2022-12-24T09:44:37.788Z,13.20
2022-12-24T09:47:10.254Z,13.30
2022-12-24T09:49:44.066Z,13.50
2022-12-24T09:52:12.484Z,13.50
2022-12-24T09:54:45.905Z,13.50
2022-12-24T09:57:20.637Z,13.50
2022-12-24T09:59:47.277Z,13.60
2022-12-24T10:02:17.691Z,13.70
2022-12-24T10:04:44.547Z,13.70
2022-12-24T10:07:23.389Z,13.70
2022-12-24T10:09:59.849Z,13.70
2022-12-24T10:12:46.017Z,13.70
2022-12-24T10:15:29.356Z,13.80
2022-12-24T10:18:14.798Z,13.80
2022-12-24T10:20:45.948Z,13.80
2022-12-24T10:23:17.836Z,13.70
2022-12-24T10:26:04.806Z,13.70
2022-12-24T10:28:38.296Z,13.70
2022-12-24T10:31:05.728Z,13.60
2022-12-24T10:33:42.786Z,13.70
2022-12-24T10:36:16.603Z,13.80
2022-12-24T10:38:43.441Z,13.70
2022-12-24T10:41:10.094Z,13.60
2022-12-24T10:43:36.956Z,13.50
2022-12-24T10:46:05.167Z,13.50
2022-12-24T10:48:32.779Z,13.40
2022-12-24T10:51:06.044Z,13.50
2022-12-24T10:53:52.169Z,13.50
2022-12-24T10:56:19.013Z,13.50
2022-12-24T10:58:46.029Z,13.40
2022-12-24T11:01:13.024Z,13.40
2022-12-24T11:03:39.975Z,13.40
2022-12-24T11:06:08.192Z,13.30
2022-12-24T11:08:35.562Z,13.20
2022-12-24T11:11:03.650Z,13.20
2022-12-24T11:13:39.447Z,13.10
2022-12-24T11:16:06.778Z,13.10
2022-12-24T11:18:35.202Z,13.10
2022-12-24T11:21:01.977Z,13.10
2022-12-24T11:23:29.182Z,13.00
2022-12-24T11:25:56.295Z,13.00
2022-12-24T11:28:24.558Z,12.90
2022-12-24T11:31:01.566Z,12.90
2022-12-24T11:33:28.705Z,12.90
2022-12-24T11:35:57.285Z,12.90
2022-12-24T11:38:25.151Z,12.90
2022-12-24T11:41:01.981Z,12.90
2022-12-24T11:43:44.498Z,12.80
2022-12-24T11:46:15.874Z,12.80
2022-12-24T11:48:45.427Z,12.80
2022-12-24T11:51:25.469Z,12.70
2022-12-24T11:53:58.520Z,12.50
2022-12-24T11:56:33.064Z,12.40
2022-12-24T11:59:05.769Z,12.30
2022-12-24T12:01:40.276Z,12.20
2022-12-24T12:04:07.084Z,12.20
2022-12-24T12:06:36.538Z,12.10
2022-12-24T12:09:05.661Z,12.00
2022-12-24T12:11:32.617Z,12.00
2022-12-24T12:13:59.628Z,11.90
2022-12-24T12:16:28.921Z,11.80
2022-12-24T12:18:57.331Z,11.80
2022-12-24T12:21:25.646Z,11.70
2022-12-24T12:23:52.243Z,11.70
2022-12-24T12:26:25.071Z,11.70
2022-12-24T12:29:06.787Z,11.70
2022-12-24T12:31:39.421Z,11.70
2022-12-24T12:34:07.172Z,11.70
2022-12-24T12:36:34.978Z,11.60
2022-12-24T12:39:01.735Z,11.60
2022-12-24T12:41:28.574Z,11.50
2022-12-24T12:44:05.035Z,11.40
2022-12-24T12:46:43.561Z,11.40
2022-12-24T12:49:10.431Z,11.40
2022-12-24T12:51:49.086Z,11.40
2022-12-24T12:54:15.691Z,11.30
2022-12-24T12:56:44.135Z,11.30
2022-12-24T12:59:11.834Z,11.30
2022-12-24T13:01:47.756Z,11.30
2022-12-24T13:04:33.243Z,11.30
2022-12-24T13:07:09.110Z,11.30
2022-12-24T13:09:54.170Z,11.30
2022-12-24T13:12:36.150Z,11.30
2022-12-24T13:15:09.110Z,11.30
2022-12-24T13:17:42.059Z,11.30
2022-12-24T13:20:11.775Z,11.30
2022-12-24T13:25:06.118Z,11.20
2022-12-24T13:27:33.077Z,11.20
2022-12-24T13:30:08.817Z,11.20
2022-12-24T13:32:37.332Z,11.30
2022-12-24T13:35:05.683Z,11.30
2022-12-24T13:37:32.992Z,11.20
2022-12-24T13:40:05.664Z,11.30
2022-12-24T13:42:51.148Z,11.30
2022-12-24T13:45:30.273Z,11.20
2022-12-24T13:47:57.506Z,11.10
2022-12-24T13:50:25.839Z,11.10
2022-12-24T13:52:52.900Z,11.00
2022-12-24T13:55:19.582Z,11.00
2022-12-24T13:57:48.006Z,11.00
2022-12-24T14:00:20.616Z,10.90
2022-12-24T14:02:49.006Z,10.80
2022-12-24T14:05:21.497Z,10.80
2022-12-24T14:07:49.342Z,10.80
2022-12-24T14:10:26.537Z,10.80
2022-12-24T14:12:53.386Z,10.70
2022-12-24T14:15:38.758Z,10.70
2022-12-24T14:18:05.519Z,10.70
2022-12-24T14:20:32.474Z,10.60
2022-12-24T14:23:03.245Z,10.60
2022-12-24T14:25:30.141Z,10.60
2022-12-24T14:27:58.845Z,10.50
2022-12-24T14:30:27.627Z,10.50
2022-12-24T14:33:03.987Z,10.40
2022-12-24T14:35:34.846Z,10.40
2022-12-24T14:38:05.294Z,10.40
2022-12-24T14:40:46.677Z,10.30
2022-12-24T14:43:16.357Z,10.30
2022-12-24T14:45:47.752Z,10.20
2022-12-24T14:48:26.171Z,10.20
2022-12-24T14:51:04.684Z,10.10
2022-12-24T14:53:56.663Z,10.10
2022-12-24T14:59:16.709Z,10.00
2022-12-24T15:01:43.772Z,9.90
2022-12-24T15:04:10.438Z,9.90
2022-12-24T15:06:38.153Z,9.90
2022-12-24T15:09:04.896Z,9.90
2022-12-24T15:11:31.550Z,9.90
2022-12-24T15:13:58.731Z,9.90
2022-12-24T15:16:32.967Z,9.80
2022-12-24T15:19:26.106Z,9.80
2022-12-24T15:21:54.113Z,9.80
2022-12-24T15:24:23.947Z,9.80
2022-12-24T15:26:50.644Z,9.80
2022-12-24T15:29:21.121Z,9.80
2022-12-24T15:31:52.191Z,9.80
2022-12-24T15:34:44.884Z,9.80
2022-12-24T15:37:17.799Z,9.80
2022-12-24T15:39:44.485Z,9.80
2022-12-24T15:42:14.037Z,9.80
2022-12-24T15:44:41.879Z,9.70
2022-12-24T15:47:12.606Z,9.70
2022-12-24T15:49:41.436Z,9.70
2022-12-24T15:52:09.305Z,9.70
2022-12-24T15:54:36.204Z,9.80
2022-12-24T15:57:20.991Z,9.80
2022-12-24T15:59:50.873Z,9.80
2022-12-24T16:02:36.206Z,9.80
2022-12-24T16:05:21.660Z,9.80
2022-12-24T16:08:07.167Z,9.80
2022-12-24T16:10:38.886Z,9.90
2022-12-24T16:13:18.972Z,9.80
2022-12-24T16:15:55.622Z,9.80
2022-12-24T16:18:33.150Z,9.90
2022-12-24T16:20:59.875Z,9.80
2022-12-24T16:23:31.584Z,9.80
2022-12-24T16:25:58.345Z,9.80
2022-12-24T16:28:25.684Z,9.80
2022-12-24T16:30:55.613Z,9.70
2022-12-24T16:33:23.750Z,9.70
2022-12-24T16:35:50.456Z,9.70
2022-12-24T16:38:17.114Z,9.70
2022-12-24T16:40:43.887Z,9.70
2022-12-24T16:43:28.928Z,9.70
2022-12-24T16:46:02.877Z,9.80
2022-12-24T16:48:29.734Z,9.70
2022-12-24T16:50:56.509Z,9.70
2022-12-24T16:53:23.222Z,9.70
2022-12-24T16:55:51.549Z,9.60
2022-12-24T16:58:18.728Z,9.60
2022-12-24T17:00:45.367Z,9.60
2022-12-24T17:03:12.200Z,9.60
2022-12-24T17:05:41.368Z,9.60
2022-12-24T17:08:08.135Z,9.70
2022-12-24T17:10:34.994Z,9.70
2022-12-24T17:13:01.681Z,9.70
2022-12-24T17:15:28.421Z,9.70
2022-12-24T17:17:55.106Z,9.70
2022-12-24T17:20:24.609Z,9.70
2022-12-24T17:22:51.555Z,9.70
2022-12-24T17:25:18.305Z,9.70
2022-12-24T17:27:44.918Z,9.70
2022-12-24T17:30:11.713Z,9.70
2022-12-24T17:32:39.648Z,9.70
2022-12-24T17:35:07.034Z,9.70
2022-12-24T17:37:33.735Z,9.70
2022-12-24T17:40:00.518Z,9.80
2022-12-24T17:42:27.167Z,9.80
2022-12-24T17:44:53.860Z,9.80
2022-12-24T17:47:23.117Z,9.80
2022-12-24T17:49:49.781Z,9.90
2022-12-24T17:52:16.458Z,9.90
2022-12-24T17:54:43.058Z,9.90
2022-12-24T17:57:09.740Z,9.90
2022-12-24T17:59:36.396Z,10.00
2022-12-24T18:02:03.159Z,10.00
2022-12-24T18:04:29.933Z,10.00
2022-12-24T18:07:02.053Z,10.10
2022-12-24T18:09:29.629Z,10.20
2022-12-24T18:11:56.254Z,10.20
2022-12-24T18:14:22.951Z,10.30
2022-12-24T18:16:50.027Z,10.30
2022-12-24T18:19:16.742Z,10.40
2022-12-24T18:21:43.418Z,10.50
2022-12-24T18:24:10.726Z,10.50
2022-12-24T18:26:37.357Z,10.50
2022-12-24T18:29:08.806Z,10.50
2022-12-24T18:31:35.659Z,10.50
2022-12-24T18:34:02.781Z,10.60
2022-12-24T18:36:29.442Z,10.60
2022-12-24T18:38:56.104Z,10.60
2022-12-24T18:41:23.885Z,10.60
2022-12-24T18:43:50.585Z,10.70
2022-12-24T18:46:18.596Z,10.70
2022-12-24T18:48:45.400Z,10.70
2022-12-24T18:51:12.078Z,10.70
2022-12-24T18:53:38.805Z,10.70
2022-12-24T18:56:12.344Z,10.60
2022-12-24T18:58:42.986Z,10.60
2022-12-24T19:01:11.069Z,10.60
2022-12-24T19:03:38.008Z,10.60
2022-12-24T19:06:04.871Z,10.60
2022-12-24T19:08:56.916Z,10.60
2022-12-24T19:11:18.919Z,10.60
2022-12-24T19:13:47.203Z,10.60
2022-12-24T19:16:14.265Z,10.60
2022-12-24T19:18:41.019Z,10.60
2022-12-24T19:21:08.053Z,10.70
2022-12-24T19:23:34.874Z,10.70
2022-12-24T19:26:01.638Z,10.70
2022-12-24T19:28:29.014Z,10.60
2022-12-24T19:30:55.655Z,10.60
2022-12-24T19:33:22.364Z,10.60
2022-12-24T19:35:51.034Z,10.60
2022-12-24T19:38:17.715Z,10.60
2022-12-24T19:40:44.384Z,10.60
2022-12-24T19:43:11.032Z,10.60
2022-12-24T19:45:37.749Z,10.60
2022-12-24T19:48:04.498Z,10.60
2022-12-24T19:50:31.337Z,10.60
2022-12-24T19:52:58.095Z,10.60
2022-12-24T19:55:24.815Z,10.50
2022-12-24T19:57:51.945Z,10.50
2022-12-24T20:00:18.839Z,10.50
2022-12-24T20:02:45.559Z,10.50
2022-12-24T20:05:12.316Z,10.50
2022-12-24T20:07:39.035Z,10.50
2022-12-24T20:10:06.463Z,10.50
2022-12-24T20:12:34.260Z,10.50
2022-12-24T20:15:00.972Z,10.50
2022-12-24T20:17:27.622Z,10.40
2022-12-24T20:20:00.382Z,10.40
2022-12-24T20:22:27.928Z,10.40
2022-12-24T20:24:55.096Z,10.40
2022-12-24T20:27:22.486Z,10.40
2022-12-24T20:29:49.114Z,10.40
2022-12-24T20:32:15.795Z,10.40
2022-12-24T20:34:42.830Z,10.40
2022-12-24T20:37:09.575Z,10.40
2022-12-24T20:39:36.340Z,10.40
2022-12-24T20:42:03.700Z,10.40
2022-12-24T20:44:30.383Z,10.40
2022-12-24T20:46:57.545Z,10.40
2022-12-24T20:49:24.222Z,10.40
2022-12-24T20:51:50.987Z,10.40
2022-12-24T20:54:17.671Z,10.40
2022-12-24T20:56:44.522Z,10.30
2022-12-24T20:59:11.149Z,10.30
2022-12-24T21:01:39.211Z,10.30
2022-12-24T21:04:08.161Z,10.30
2022-12-24T21:06:34.918Z,10.30
2022-12-24T21:09:01.678Z,10.40
2022-12-24T21:11:47.082Z,10.30
2022-12-24T21:14:14.180Z,10.30
2022-12-24T21:16:41.103Z,10.40
2022-12-24T21:19:08.414Z,10.40
2022-12-24T21:21:35.281Z,10.30
2022-12-24T21:24:02.121Z,10.30
2022-12-24T21:26:28.776Z,10.30
2022-12-24T21:28:55.511Z,10.40
2022-12-24T21:31:22.298Z,10.40
2022-12-24T21:33:49.179Z,10.40
2022-12-24T21:36:15.991Z,10.40
2022-12-24T21:38:42.726Z,10.40
2022-12-24T21:41:10.286Z,10.00
2022-12-24T21:43:37.106Z,10.40
2022-12-24T21:46:12.096Z,10.40
2022-12-24T21:48:57.375Z,10.40
2022-12-24T21:51:24.244Z,10.40
2022-12-24T21:54:09.752Z,10.40
2022-12-24T21:56:56.384Z,10.40
2022-12-24T21:59:26.633Z,10.40
2022-12-24T22:01:54.266Z,10.40
2022-12-24T22:04:21.097Z,10.40
2022-12-24T22:07:06.217Z,10.50
2022-12-24T22:09:51.344Z,10.40
2022-12-24T22:12:18.076Z,10.40
2022-12-24T22:14:44.716Z,10.40
2022-12-24T22:17:11.425Z,10.40
2022-12-24T22:19:38.088Z,10.30
2022-12-24T22:22:04.715Z,10.20
2022-12-24T22:24:31.432Z,10.20
2022-12-24T22:26:58.052Z,10.30
2022-12-24T22:29:24.703Z,10.20
2022-12-24T22:31:51.375Z,10.20
2022-12-24T22:34:18.062Z,10.10
2022-12-24T22:36:44.686Z,10.10
2022-12-24T22:39:11.498Z,10.10
2022-12-24T22:41:38.180Z,10.00
2022-12-24T22:44:04.872Z,10.00
2022-12-24T22:46:31.620Z,10.00
2022-12-24T22:48:58.273Z,10.00
2022-12-24T22:51:24.965Z,10.00
2022-12-24T22:53:51.702Z,9.90
2022-12-24T22:56:20.022Z,10.00
2022-12-24T22:58:46.896Z,9.90
2022-12-24T23:01:13.607Z,9.90
2022-12-24T23:03:40.349Z,9.90
2022-12-24T23:06:07.211Z,9.90
2022-12-24T23:08:34.494Z,10.00
2022-12-24T23:11:05.550Z,10.00
2022-12-24T23:13:50.932Z,10.00
2022-12-24T23:16:17.657Z,10.00
2022-12-24T23:18:44.387Z,10.00
2022-12-24T23:21:11.039Z,10.10
2022-12-24T23:23:37.793Z,10.10
2022-12-24T23:26:14.458Z,10.00
2022-12-24T23:28:41.145Z,10.00
2022-12-24T23:31:07.886Z,10.00
2022-12-24T23:33:34.704Z,10.10
2022-12-24T23:36:01.498Z,10.10
2022-12-24T23:38:28.194Z,10.10
2022-12-24T23:40:55.671Z,10.10
2022-12-24T23:43:22.343Z,10.10
2022-12-24T23:45:49.292Z,10.10
2022-12-24T23:48:15.952Z,10.10
2022-12-24T23:50:42.901Z,10.20
2022-12-24T23:53:09.664Z,10.10
2022-12-24T23:55:36.294Z,10.20
2022-12-24T23:58:03.123Z,10.20
